createdAt,value
2019-05-17T00:02:06.959Z,92.70
2019-05-17T00:04:51.671Z,92.70
2019-05-17T00:07:37.158Z,92.90
2019-05-17T00:10:30.721Z,93.20
2019-05-17T00:13:17.410Z,93.60
2019-05-17T00:16:02.403Z,93.60
2019-05-17T00:18:48.292Z,93.60
2019-05-17T00:21:32.683Z,93.70
2019-05-17T00:24:18.265Z,93.60
2019-05-17T00:27:12.652Z,93.40
2019-05-17T00:30:06.581Z,93.20
2019-05-17T00:32:51.067Z,92.70
2019-05-17T00:35:37.629Z,92.30
2019-05-17T00:38:21.959Z,92.20
2019-05-17T00:41:07.161Z,92.20
2019-05-17T00:43:52.311Z,92.10
2019-05-17T00:46:37.364Z,92.30
2019-05-17T00:49:31.070Z,93.00
2019-05-17T00:52:16.711Z,93.30
2019-05-17T00:55:01.349Z,93.20
2019-05-17T00:57:56.399Z,93.20
2019-05-17T01:00:40.581Z,93.60
2019-05-17T01:03:26.945Z,93.60
2019-05-17T01:06:11.746Z,93.50
2019-05-17T01:09:01.912Z,93.20
2019-05-17T01:11:43.057Z,92.70
2019-05-17T01:14:28.085Z,92.60
2019-05-17T01:17:22.659Z,92.60
2019-05-17T01:20:07.210Z,92.50
2019-05-17T01:22:52.175Z,92.60
2019-05-17T01:25:37.989Z,92.60
2019-05-17T01:28:22.401Z,92.80
2019-05-17T01:31:17.241Z,92.80
2019-05-17T01:34:02.281Z,92.80
2019-05-17T01:36:47.150Z,92.80
2019-05-17T01:39:33.523Z,92.80
2019-05-17T01:42:18.391Z,92.90
2019-05-17T01:45:03.097Z,93.00
2019-05-17T01:47:47.986Z,93.40
2019-05-17T01:50:32.518Z,93.70
2019-05-17T01:53:17.601Z,93.90
2019-05-17T01:56:02.030Z,93.80
2019-05-17T01:58:47.112Z,93.80
2019-05-17T02:01:31.815Z,93.80
2019-05-17T02:04:17.368Z,93.90
2019-05-17T02:07:02.675Z,94.20
2019-05-17T02:09:47.660Z,94.30
2019-05-17T02:12:32.565Z,94.30
2019-05-17T02:15:17.429Z,94.30
2019-05-17T02:18:02.029Z,94.30
2019-05-17T02:20:46.489Z,94.40
2019-05-17T02:23:31.870Z,94.40
2019-05-17T02:26:17.336Z,94.40
2019-05-17T02:29:03.458Z,94.30
2019-05-17T02:31:57.417Z,94.30
2019-05-17T02:34:43.171Z,94.20
2019-05-17T02:37:27.634Z,94.00
2019-05-17T02:40:14.386Z,93.90
2019-05-17T02:43:02.795Z,93.70
2019-05-17T02:45:45.253Z,93.70
2019-05-17T02:48:33.397Z,93.60
2019-05-17T02:51:16.861Z,93.50
2019-05-17T02:54:04.053Z,93.90
2019-05-17T02:56:48.174Z,93.90
2019-05-17T02:59:33.296Z,94.00
2019-05-17T03:02:17.821Z,94.50
2019-05-17T03:05:03.963Z,94.60
2019-05-17T03:07:52.601Z,94.30
2019-05-17T03:10:34.928Z,94.40
2019-05-17T03:13:19.311Z,94.50
2019-05-17T03:16:14.628Z,94.90
2019-05-17T03:18:59.491Z,95.00
2019-05-17T03:21:44.144Z,94.80
2019-05-17T03:24:28.998Z,94.80
2019-05-17T03:27:14.013Z,94.70
2019-05-17T03:30:08.009Z,94.80
2019-05-17T03:32:56.439Z,94.50
2019-05-17T03:35:38.988Z,94.40
2019-05-17T03:38:23.699Z,94.20
2019-05-17T03:41:18.197Z,94.10
2019-05-17T03:44:04.253Z,94.40
2019-05-17T03:46:48.986Z,94.40
2019-05-17T03:49:34.028Z,94.50
2019-05-17T03:52:18.747Z,94.70
2019-05-17T03:55:04.262Z,94.60
2019-05-17T03:57:58.026Z,94.70
2019-05-17T04:00:53.474Z,94.70
2019-05-17T04:03:38.309Z,94.70
2019-05-17T04:06:23.815Z,94.60
2019-05-17T04:09:18.570Z,94.50
2019-05-17T04:12:03.688Z,94.40
2019-05-17T04:14:47.867Z,94.80
2019-05-17T04:17:33.155Z,94.90
2019-05-17T04:20:17.796Z,94.90
2019-05-17T04:23:03.971Z,95.20
2019-05-17T04:25:48.210Z,95.10
2019-05-17T04:28:44.034Z,94.90
2019-05-17T04:31:30.572Z,94.70
2019-05-17T04:34:14.075Z,94.70
2019-05-17T04:36:59.278Z,95.10
2019-05-17T04:39:44.014Z,94.90
2019-05-17T04:42:28.705Z,94.70
2019-05-17T04:45:13.120Z,94.70
2019-05-17T04:47:57.983Z,94.90
2019-05-17T04:50:43.008Z,95.10
2019-05-17T04:53:28.170Z,95.10
2019-05-17T04:56:13.957Z,94.90
2019-05-17T04:59:03.182Z,94.80
2019-05-17T05:01:46.590Z,94.90
2019-05-17T05:04:33.364Z,94.90
2019-05-17T05:07:17.995Z,94.70
2019-05-17T05:10:03.270Z,94.50
2019-05-17T05:12:48.089Z,94.20
2019-05-17T05:15:33.098Z,94.00
2019-05-17T05:18:17.650Z,93.90
2019-05-17T05:21:03.639Z,93.50
2019-05-17T05:23:48.446Z,93.00
2019-05-17T05:26:33.070Z,92.80
2019-05-17T05:29:17.930Z,92.20
2019-05-17T05:32:02.869Z,92.00
2019-05-17T05:34:57.381Z,91.80
2019-05-17T05:37:42.756Z,91.20
2019-05-17T05:40:36.582Z,90.50
2019-05-17T05:43:22.642Z,90.50
2019-05-17T05:46:07.574Z,90.30
2019-05-17T05:48:52.339Z,90.10
2019-05-17T05:51:37.303Z,90.10
2019-05-17T05:54:22.611Z,90.10
2019-05-17T05:57:16.225Z,89.80
2019-05-17T06:00:02.282Z,89.70
2019-05-17T06:02:56.684Z,89.10
2019-05-17T06:05:42.881Z,88.30
2019-05-17T06:08:27.771Z,87.50
2019-05-17T06:11:12.394Z,86.60
2019-05-17T06:13:57.157Z,85.80
2019-05-17T06:16:42.716Z,85.10
2019-05-17T06:19:28.678Z,84.90
2019-05-17T06:22:13.651Z,84.30
2019-05-17T06:24:57.778Z,83.90
2019-05-17T06:27:42.223Z,83.20
2019-05-17T06:30:35.978Z,82.20
2019-05-17T06:33:30.720Z,82.20
2019-05-17T06:36:06.766Z,81.80
2019-05-17T06:38:52.743Z,81.20
2019-05-17T06:41:37.697Z,81.80
2019-05-17T06:44:22.352Z,81.60
2019-05-17T06:47:06.602Z,81.20
2019-05-17T06:50:03.213Z,79.80
2019-05-17T06:52:45.641Z,79.40
2019-05-17T06:55:39.165Z,78.30
2019-05-17T06:58:25.177Z,77.00
2019-05-17T07:01:10.295Z,76.00
2019-05-17T07:03:54.709Z,75.90
2019-05-17T07:06:40.468Z,76.00
2019-05-17T07:09:42.403Z,76.30
2019-05-17T07:12:36.197Z,75.50
2019-05-17T07:15:20.881Z,75.10
2019-05-17T07:18:05.677Z,74.80
2019-05-17T07:20:50.355Z,74.00
2019-05-17T07:23:34.862Z,73.40
2019-05-17T07:26:19.861Z,72.60
2019-05-17T07:29:04.710Z,72.90
2019-05-17T07:31:51.965Z,71.90
2019-05-17T07:34:45.540Z,71.80
2019-05-17T07:37:30.429Z,71.80
2019-05-17T07:40:15.066Z,71.70
2019-05-17T07:43:10.155Z,71.20
2019-05-17T07:45:46.317Z,70.70
2019-05-17T07:48:31.551Z,71.30
2019-05-17T07:51:25.298Z,70.30
2019-05-17T07:54:10.420Z,70.10
2019-05-17T07:57:04.201Z,69.60
2019-05-17T07:59:50.775Z,70.00
2019-05-17T08:02:35.498Z,69.50
2019-05-17T08:05:21.412Z,70.00
2019-05-17T08:08:06.221Z,70.30
2019-05-17T08:10:51.211Z,67.90
2019-05-17T08:13:36.258Z,68.20
2019-05-17T08:16:21.270Z,68.00
2019-05-17T08:19:06.263Z,67.60
2019-05-17T08:22:00.134Z,67.30
2019-05-17T08:24:44.370Z,67.80
2019-05-17T08:27:29.647Z,66.80
2019-05-17T08:30:23.635Z,66.40
2019-05-17T08:33:10.499Z,66.70
2019-05-17T08:36:04.475Z,66.60
2019-05-17T08:38:50.150Z,65.30
2019-05-17T08:41:34.576Z,64.80
2019-05-17T08:44:29.871Z,65.00
2019-05-17T08:47:24.134Z,64.30
2019-05-17T08:50:20.047Z,63.60
2019-05-17T08:53:13.402Z,64.40
2019-05-17T08:55:57.842Z,64.40
2019-05-17T08:58:42.606Z,63.80
2019-05-17T09:01:27.302Z,63.20
2019-05-17T09:04:12.365Z,62.90
2019-05-17T09:06:56.609Z,62.60
2019-05-17T09:09:50.358Z,63.20
2019-05-17T09:12:44.526Z,63.30
2019-05-17T09:15:29.763Z,63.00
2019-05-17T09:18:23.206Z,62.80
2019-05-17T09:21:09.660Z,63.10
2019-05-17T09:23:54.999Z,61.80
2019-05-17T09:26:49.238Z,61.70
2019-05-17T09:29:42.758Z,62.00
2019-05-17T09:32:29.638Z,61.20
2019-05-17T09:35:13.986Z,60.40
2019-05-17T09:38:00.492Z,59.80
2019-05-17T09:40:44.853Z,59.40
2019-05-17T09:43:29.955Z,58.30
2019-05-17T09:46:15.078Z,58.60
2019-05-17T09:49:01.202Z,58.30
2019-05-17T09:51:55.726Z,58.00
2019-05-17T09:54:50.395Z,57.90
2019-05-17T09:57:35.237Z,57.50
2019-05-17T10:00:20.794Z,56.30
2019-05-17T10:03:14.526Z,56.10
2019-05-17T10:05:59.986Z,56.10
2019-05-17T10:08:53.674Z,54.60
2019-05-17T10:14:50.040Z,55.10
2019-05-17T10:17:42.073Z,54.80
2019-05-17T10:20:35.956Z,53.90
2019-05-17T10:23:21.282Z,53.70
2019-05-17T10:26:20.581Z,53.00
2019-05-17T10:29:05.445Z,52.10
2019-05-17T10:31:50.499Z,52.30
2019-05-17T10:34:34.983Z,50.80
2019-05-17T10:37:20.437Z,50.60
2019-05-17T10:40:14.601Z,50.50
2019-05-17T10:43:10.011Z,50.10
2019-05-17T10:45:54.545Z,49.80
2019-05-17T10:48:41.089Z,49.80
2019-05-17T10:51:25.162Z,49.70
2019-05-17T10:54:09.697Z,48.80
2019-05-17T10:57:03.332Z,48.90
2019-05-17T10:59:49.957Z,48.40
2019-05-17T11:02:43.689Z,48.10
2019-05-17T11:05:30.613Z,47.40
2019-05-17T11:08:14.782Z,46.70
2019-05-17T11:10:59.873Z,46.60
2019-05-17T11:13:44.442Z,46.80
2019-05-17T11:16:29.075Z,46.40
2019-05-17T11:19:14.298Z,45.30
2019-05-17T11:21:58.987Z,45.30
2019-05-17T11:24:43.503Z,45.00
2019-05-17T11:27:28.991Z,44.90
2019-05-17T11:30:13.447Z,44.60
2019-05-17T11:32:58.324Z,43.70
2019-05-17T11:35:43.279Z,43.30
2019-05-17T11:38:27.973Z,42.80
2019-05-17T11:41:21.256Z,42.30
2019-05-17T11:43:59.426Z,41.80
2019-05-17T11:46:59.753Z,41.70
2019-05-17T11:49:53.425Z,41.10
2019-05-17T11:52:38.067Z,41.10
2019-05-17T11:55:22.518Z,40.80
2019-05-17T11:58:06.840Z,40.90
2019-05-17T12:01:00.022Z,40.70
2019-05-17T12:03:44.909Z,40.70
2019-05-17T12:06:29.722Z,39.80
2019-05-17T12:09:14.425Z,39.50
2019-05-17T12:11:59.228Z,39.50
2019-05-17T12:14:43.769Z,39.20
2019-05-17T12:17:28.539Z,38.20
2019-05-17T12:20:13.520Z,38.20
2019-05-17T12:22:57.998Z,37.60
2019-05-17T12:25:42.840Z,37.30
2019-05-17T12:28:37.854Z,37.10
2019-05-17T12:31:22.713Z,36.40
2019-05-17T12:34:07.367Z,36.70
2019-05-17T12:36:52.261Z,36.70
2019-05-17T12:39:37.059Z,36.20
2019-05-17T12:42:21.862Z,36.10
2019-05-17T12:45:06.732Z,35.80
2019-05-17T12:48:00.845Z,34.90
2019-05-17T12:50:55.162Z,35.80
2019-05-17T12:53:49.089Z,37.10
2019-05-17T12:56:33.405Z,37.90
2019-05-17T12:59:18.574Z,38.30
2019-05-17T13:02:03.162Z,37.70
2019-05-17T13:04:48.008Z,37.70
2019-05-17T13:07:33.110Z,37.60
2019-05-17T13:10:18.018Z,37.20
2019-05-17T13:13:11.552Z,37.00
2019-05-17T13:15:56.125Z,37.70
2019-05-17T13:18:41.138Z,37.30
2019-05-17T13:21:26.356Z,37.50
2019-05-17T13:24:11.521Z,37.20
2019-05-17T13:26:57.134Z,37.20
2019-05-17T13:29:41.806Z,37.70
2019-05-17T13:32:26.190Z,36.90
2019-05-17T13:35:39.571Z,36.70
2019-05-17T13:38:24.051Z,36.40
2019-05-17T13:41:18.364Z,36.20
2019-05-17T13:44:03.338Z,36.00
2019-05-17T13:46:48.077Z,36.20
2019-05-17T13:49:33.229Z,36.50
2019-05-17T13:52:26.996Z,37.20
2019-05-17T13:55:12.184Z,36.90
2019-05-17T13:58:06.230Z,37.00
2019-05-17T14:01:00.060Z,37.60
2019-05-17T14:03:45.203Z,37.60
2019-05-17T14:06:38.830Z,37.70
2019-05-17T14:09:23.943Z,37.80
2019-05-17T14:12:08.694Z,38.00
2019-05-17T14:14:53.372Z,38.40
2019-05-17T14:17:38.141Z,38.60
2019-05-17T14:20:22.844Z,38.70
2019-05-17T14:23:07.631Z,38.80
2019-05-17T14:25:52.354Z,39.10
2019-05-17T14:28:37.254Z,39.30
2019-05-17T14:31:21.970Z,39.30
2019-05-17T14:34:06.378Z,39.20
2019-05-17T14:36:51.453Z,39.40
2019-05-17T14:39:35.682Z,39.70
2019-05-17T14:42:29.143Z,39.70
2019-05-17T14:45:14.293Z,40.00
2019-05-17T14:48:08.291Z,40.00
2019-05-17T14:51:02.359Z,40.70
2019-05-17T14:53:47.277Z,41.00
2019-05-17T14:56:41.372Z,41.90
2019-05-17T14:59:26.127Z,41.30
2019-05-17T15:02:10.913Z,41.70
2019-05-17T15:04:56.242Z,41.50
2019-05-17T15:07:49.986Z,38.30
2019-05-17T15:10:34.677Z,37.60
2019-05-17T15:13:19.385Z,37.50
2019-05-17T15:16:04.274Z,37.90
2019-05-17T15:18:48.882Z,38.20
2019-05-17T15:21:33.527Z,38.40
2019-05-17T15:24:18.408Z,38.80
2019-05-17T15:27:05.860Z,44.10
2019-05-17T15:29:49.273Z,45.40
2019-05-17T15:32:33.841Z,46.60
2019-05-17T15:35:18.510Z,48.10
2019-05-17T15:38:12.126Z,50.50
2019-05-17T15:40:57.258Z,52.90
2019-05-17T15:43:51.015Z,55.90
2019-05-17T15:46:45.182Z,58.00
2019-05-17T15:49:39.106Z,58.40
2019-05-17T15:52:23.763Z,60.50
2019-05-17T15:55:09.329Z,63.70
2019-05-17T15:58:02.653Z,64.20
2019-05-17T16:00:47.666Z,67.50
2019-05-17T16:03:32.639Z,69.90
2019-05-17T16:06:29.154Z,71.80
2019-05-17T16:09:13.644Z,73.30
2019-05-17T16:12:07.269Z,74.50
2019-05-17T16:14:51.895Z,74.20
2019-05-17T16:17:36.486Z,74.10
2019-05-17T16:20:20.826Z,74.00
2019-05-17T16:23:05.685Z,74.30
2019-05-17T16:26:02.727Z,74.00
2019-05-17T16:28:47.239Z,73.70
2019-05-17T16:31:42.834Z,73.20
2019-05-17T16:34:27.637Z,72.10
2019-05-17T16:37:12.184Z,71.40
2019-05-17T16:39:56.322Z,70.90
2019-05-17T16:42:38.473Z,71.50
2019-05-17T16:45:22.970Z,72.90
2019-05-17T16:48:07.846Z,72.50
2019-05-17T16:50:52.359Z,71.60
2019-05-17T16:53:37.705Z,70.90
2019-05-17T16:56:21.958Z,71.30
2019-05-17T16:59:06.630Z,71.90
2019-05-17T17:02:00.414Z,71.90
2019-05-17T17:04:54.066Z,72.80
2019-05-17T17:07:39.041Z,72.40
2019-05-17T17:10:23.790Z,73.30
2019-05-17T17:13:08.581Z,73.80
2019-05-17T17:15:52.946Z,73.20
2019-05-17T17:18:37.408Z,73.70
2019-05-17T17:21:22.469Z,73.20
2019-05-17T17:24:07.607Z,73.40
2019-05-17T17:26:52.086Z,71.90
2019-05-17T17:29:36.729Z,71.30
2019-05-17T17:32:22.038Z,70.50
2019-05-17T17:35:07.023Z,69.20
2019-05-17T17:37:51.731Z,68.20
2019-05-17T17:40:36.410Z,68.60
2019-05-17T17:43:21.083Z,68.70
2019-05-17T17:46:05.899Z,68.60
2019-05-17T17:48:50.945Z,68.50
2019-05-17T17:51:24.215Z,68.30
2019-05-17T17:54:09.297Z,68.00
2019-05-17T17:56:54.230Z,68.00
2019-05-17T17:59:39.274Z,67.70
2019-05-17T18:02:36.275Z,67.60
2019-05-17T18:05:20.955Z,69.60
2019-05-17T18:08:15.008Z,70.00
2019-05-17T18:10:59.882Z,70.70
2019-05-17T18:13:44.360Z,71.30
2019-05-17T18:16:28.907Z,73.70
2019-05-17T18:19:13.465Z,72.90
2019-05-17T18:21:58.121Z,70.80
2019-05-17T18:24:43.899Z,70.80
2019-05-17T18:27:28.546Z,70.60
2019-05-17T18:30:13.678Z,71.30
2019-05-17T18:32:58.347Z,72.10
2019-05-17T18:35:42.811Z,71.80
2019-05-17T18:38:27.605Z,72.60
2019-05-17T18:41:12.662Z,72.00
2019-05-17T18:43:57.825Z,69.90
2019-05-17T18:46:52.171Z,69.40
2019-05-17T18:49:45.910Z,69.00
2019-05-17T18:52:31.077Z,68.50
2019-05-17T18:55:25.019Z,67.80
2019-05-17T18:58:19.110Z,70.40
2019-05-17T19:01:13.344Z,74.70
2019-05-17T19:04:07.369Z,75.80
2019-05-17T19:06:52.305Z,76.40
2019-05-17T19:09:45.846Z,76.30
2019-05-17T19:12:30.786Z,78.40
2019-05-17T19:15:15.334Z,80.30
2019-05-17T19:18:00.043Z,81.00
2019-05-17T19:20:45.651Z,81.00
2019-05-17T19:23:39.414Z,81.00
2019-05-17T19:26:24.124Z,81.90
2019-05-17T19:29:08.279Z,82.50
2019-05-17T19:32:00.535Z,81.80
2019-05-17T19:34:54.438Z,81.80
2019-05-17T19:37:39.398Z,82.80
2019-05-17T19:40:33.346Z,83.40
2019-05-17T19:43:18.205Z,83.70
2019-05-17T19:46:03.222Z,84.30
2019-05-17T19:48:56.761Z,86.20
2019-05-17T19:51:41.539Z,88.00
2019-05-17T19:54:26.403Z,90.20
2019-05-17T19:57:11.754Z,90.50
2019-05-17T20:00:05.354Z,90.30
2019-05-17T20:02:49.905Z,90.10
2019-05-17T20:05:34.936Z,90.50
2019-05-17T20:08:19.622Z,91.00
2019-05-17T20:11:04.348Z,91.30
2019-05-17T20:13:48.857Z,90.80
2019-05-17T20:16:33.562Z,90.10
2019-05-17T20:19:18.318Z,89.00
2019-05-17T20:22:11.734Z,87.50
2019-05-17T20:24:56.862Z,87.20
2019-05-17T20:27:50.358Z,88.20
2019-05-17T20:30:35.477Z,89.30
2019-05-17T20:33:20.317Z,88.90
2019-05-17T20:36:04.842Z,89.50
2019-05-17T20:38:49.620Z,90.20
2019-05-17T20:41:34.637Z,90.30
2019-05-17T20:44:19.241Z,90.00
2019-05-17T20:47:04.042Z,88.80
2019-05-17T20:49:48.330Z,88.30
2019-05-17T20:52:32.941Z,88.50
2019-05-17T20:55:27.401Z,88.90
2019-05-17T20:58:22.026Z,89.20
2019-05-17T21:01:06.807Z,89.90
2019-05-17T21:03:52.498Z,90.10
2019-05-17T21:06:36.834Z,90.20
2019-05-17T21:09:30.414Z,89.80
2019-05-17T21:12:14.997Z,90.00
2019-05-17T21:14:59.873Z,90.00
2019-05-17T21:17:45.075Z,89.60
2019-05-17T21:20:29.854Z,89.50
2019-05-17T21:23:14.188Z,89.90
2019-05-17T21:25:59.536Z,89.10
2019-05-17T21:28:47.165Z,89.30
2019-05-17T21:31:49.491Z,86.20
2019-05-17T21:34:34.097Z,86.20
2019-05-17T21:37:18.922Z,85.70
2019-05-17T21:40:03.656Z,85.50
2019-05-17T21:42:48.885Z,85.50
2019-05-17T21:45:33.722Z,84.90
2019-05-17T21:48:18.852Z,84.60
2019-05-17T21:51:12.554Z,84.30
2019-05-17T21:53:57.270Z,83.80
2019-05-17T21:57:00.940Z,83.40
2019-05-17T21:59:53.330Z,83.50
2019-05-17T22:02:38.842Z,83.00
2019-05-17T22:05:24.070Z,83.00
2019-05-17T22:08:18.206Z,82.60
2019-05-17T22:11:12.266Z,82.60
2019-05-17T22:14:06.131Z,82.30
2019-05-17T22:16:50.891Z,84.00
2019-05-17T22:19:35.514Z,85.00
2019-05-17T22:22:20.779Z,85.40
2019-05-17T22:25:14.518Z,85.00
2019-05-17T22:27:59.219Z,84.30
2019-05-17T22:30:44.218Z,83.70
2019-05-17T22:33:28.700Z,83.10
2019-05-17T22:36:13.634Z,83.00
2019-05-17T22:38:58.442Z,82.10
2019-05-17T22:41:42.962Z,82.10
2019-05-17T22:44:27.387Z,84.20
2019-05-17T22:47:20.704Z,85.80
2019-05-17T22:50:05.617Z,86.10
2019-05-17T22:52:50.526Z,86.80
2019-05-17T22:55:35.190Z,86.70
2019-05-17T22:58:19.988Z,84.70
2019-05-17T23:01:04.628Z,84.40
2019-05-17T23:03:49.601Z,84.50
2019-05-17T23:06:34.234Z,84.20
2019-05-17T23:09:18.505Z,84.50
2019-05-17T23:12:03.118Z,84.90
2019-05-17T23:14:56.397Z,84.80
2019-05-17T23:17:40.891Z,85.00
2019-05-17T23:20:26.034Z,85.90
2019-05-17T23:23:10.325Z,87.30
2019-05-17T23:25:55.181Z,88.60
2019-05-17T23:28:40.358Z,89.50
2019-05-17T23:31:24.794Z,90.00
2019-05-17T23:34:09.644Z,90.40
2019-05-17T23:36:54.832Z,90.60
2019-05-17T23:39:39.804Z,90.80
2019-05-17T23:42:24.106Z,90.60
2019-05-17T23:45:08.703Z,90.30
2019-05-17T23:47:53.705Z,90.30
2019-05-17T23:50:38.849Z,90.60
2019-05-17T23:53:23.231Z,90.90
2019-05-17T23:56:09.642Z,91.20
2019-05-17T23:58:54.665Z,91.30
